Time;durP1;ratioP1;P1;durP2;ratioP2;P2;SDS_P1;SDS_P2;PMS_P1;PMS_P2;Temp;Humidity;BMP_temperature;BMP_pressure;BME280_temperature;BME280_humidity;BME280_pressure;Samples;Min_cycle;Max_cycle;Signal;HPM_P1;HPM_P2
2023/11/11 00:02:11;;;;;;;20.42;12.15;;;11.60;99.90;;;;;;5055558;28;20033;-72
2023/11/11 00:04:38;;;;;;;16.20;10.48;;;11.60;99.90;;;;;;5055361;28;20037;-72
2023/11/11 00:07:05;;;;;;;18.65;10.82;;;11.60;99.90;;;;;;5037549;28;20396;-72
2023/11/11 00:09:31;;;;;;;13.43;10.52;;;11.60;99.90;;;;;;5055318;28;20088;-72
2023/11/11 00:11:58;;;;;;;15.27;10.38;;;11.60;99.90;;;;;;5055461;28;20156;-72
2023/11/11 00:14:25;;;;;;;13.35;10.23;;;11.60;99.90;;;;;;5055614;28;20489;-72
2023/11/11 00:16:50;;;;;;;13.85;10.27;;;11.60;99.90;;;;;;5055369;28;20033;-72
2023/11/11 00:19:17;;;;;;;13.38;10.73;;;11.60;99.90;;;;;;5054481;28;20040;-72
2023/11/11 00:21:49;;;;;;;14.05;10.23;;;11.60;99.90;;;;;;5055292;28;20442;-72
2023/11/11 00:24:14;;;;;;;11.20;9.55;;;11.60;99.90;;;;;;5055232;28;20508;-72
2023/11/11 00:26:40;;;;;;;10.77;9.00;;;11.60;99.90;;;;;;5055379;28;20057;-72
2023/11/11 00:29:07;;;;;;;15.32;10.25;;;11.60;99.90;;;;;;5055183;28;20111;-72
2023/11/11 00:31:34;;;;;;;14.73;9.65;;;11.60;99.90;;;;;;5055280;28;20095;-72
2023/11/11 00:34:01;;;;;;;12.57;9.77;;;11.60;99.90;;;;;;5055918;28;20029;-72
2023/11/11 00:36:27;;;;;;;12.27;9.32;;;11.60;99.90;;;;;;5055756;28;20044;-72
2023/11/11 00:38:54;;;;;;;15.77;9.88;;;11.60;99.90;;;;;;5054884;28;20111;-71
2023/11/11 00:41:20;;;;;;;12.25;10.07;;;11.50;99.90;;;;;;5056073;28;20394;-72
2023/11/11 00:43:49;;;;;;;14.63;9.88;;;11.50;99.90;;;;;;5055458;28;20033;-72
2023/11/11 00:46:19;;;;;;;11.50;9.80;;;11.60;99.90;;;;;;5055128;28;20668;-72
2023/11/11 00:48:54;;;;;;;14.10;9.38;;;11.50;99.90;;;;;;5055167;28;20095;-72
2023/11/11 00:52:01;;;;;;;12.55;9.68;;;11.50;99.90;;;;;;5055194;28;20107;-72
2023/11/11 00:54:30;;;;;;;11.95;9.95;;;11.50;99.90;;;;;;4954665;29;20079;-72
2023/11/11 00:57:18;;;;;;;12.88;9.15;;;11.50;99.90;;;;;;5054001;28;20048;-72
2023/11/11 00:59:56;;;;;;;13.02;9.52;;;11.50;99.90;;;;;;5055424;28;20207;-72
2023/11/11 01:02:25;;;;;;;11.00;8.68;;;11.50;99.90;;;;;;5054731;28;20064;-72
2023/11/11 01:04:57;;;;;;;12.82;9.48;;;11.50;99.90;;;;;;5054439;28;20041;-71
2023/11/11 01:07:26;;;;;;;11.38;9.43;;;11.50;99.90;;;;;;5054979;28;20041;-72
2023/11/11 01:09:58;;;;;;;12.27;9.48;;;11.50;99.90;;;;;;5055119;28;20544;-72
2023/11/11 01:12:51;;;;;;;14.18;10.13;;;11.50;99.90;;;;;;5054558;28;20049;-72
2023/11/11 01:15:45;;;;;;;12.32;9.05;;;11.50;99.90;;;;;;5041914;28;20047;-72
2023/11/11 01:18:14;;;;;;;12.75;9.40;;;11.50;99.90;;;;;;5054083;28;20088;-72
2023/11/11 01:20:43;;;;;;;11.05;8.50;;;11.50;99.90;;;;;;5054391;28;20037;-72
2023/11/11 01:23:12;;;;;;;15.75;9.98;;;11.50;99.90;;;;;;5054027;28;20029;-72
2023/11/11 01:25:47;;;;;;;18.92;11.18;;;11.50;99.90;;;;;;5054305;28;20044;-73
2023/11/11 01:28:13;;;;;;;15.43;12.02;;;11.40;99.90;;;;;;5053665;28;20033;-72
2023/11/11 01:30:39;;;;;;;17.38;10.48;;;11.40;99.90;;;;;;5053993;28;20544;-72
2023/11/11 01:33:09;;;;;;;17.63;11.68;;;11.40;99.90;;;;;;5054039;28;20033;-72
2023/11/11 01:35:35;;;;;;;16.40;11.20;;;11.40;99.90;;;;;;5054272;28;20033;-72
2023/11/11 01:38:01;;;;;;;16.63;11.07;;;11.40;99.90;;;;;;5054190;28;20025;-71
2023/11/11 01:40:26;;;;;;;13.30;9.98;;;11.40;99.90;;;;;;5053908;28;20036;-72
2023/11/11 01:42:52;;;;;;;13.60;10.25;;;11.30;99.90;;;;;;5053907;28;20033;-72
2023/11/11 01:45:18;;;;;;;12.38;10.13;;;11.30;99.90;;;;;;5053835;28;20032;-72
2023/11/11 01:47:44;;;;;;;12.63;9.52;;;11.40;99.90;;;;;;5053725;28;20033;-72
2023/11/11 01:50:12;;;;;;;10.88;8.20;;;11.30;99.90;;;;;;5053708;28;20393;-72
2023/11/11 01:52:38;;;;;;;10.20;7.72;;;11.40;99.90;;;;;;5053682;28;20396;-72
2023/11/11 01:55:05;;;;;;;9.95;8.40;;;11.30;99.90;;;;;;5053750;28;20040;-72
2023/11/11 01:57:31;;;;;;;10.32;7.82;;;11.30;99.90;;;;;;5052709;28;20477;-71
2023/11/11 01:59:59;;;;;;;11.82;8.27;;;11.30;99.90;;;;;;5050840;28;20028;-72
2023/11/11 02:02:25;;;;;;;13.88;7.85;;;11.30;99.90;;;;;;5050749;28;20043;-72
2023/11/11 02:04:51;;;;;;;10.63;6.65;;;11.30;99.90;;;;;;5051914;28;20033;-72
2023/11/11 02:07:16;;;;;;;5.85;4.18;;;11.30;99.90;;;;;;5053143;28;20040;-72
2023/11/11 02:09:43;;;;;;;5.47;4.30;;;11.30;99.90;;;;;;5053111;28;20111;-71
2023/11/11 02:12:09;;;;;;;4.78;3.15;;;11.30;99.90;;;;;;5052797;28;20045;-72
2023/11/11 02:14:37;;;;;;;7.65;3.28;;;11.30;99.90;;;;;;5052601;28;20036;-72
2023/11/11 02:17:03;;;;;;;6.88;4.43;;;11.30;99.90;;;;;;5053890;28;20064;-72
2023/11/11 02:19:29;;;;;;;6.70;4.57;;;11.30;99.90;;;;;;5053948;28;20033;-71
2023/11/11 02:21:55;;;;;;;7.28;4.80;;;11.30;99.90;;;;;;5053648;28;20040;-72
2023/11/11 02:24:22;;;;;;;8.18;5.10;;;11.30;99.90;;;;;;5053805;28;20116;-71
2023/11/11 02:26:57;;;;;;;5.10;4.15;;;11.30;99.90;;;;;;5053449;28;20036;-71
2023/11/11 02:29:46;;;;;;;5.75;3.75;;;11.30;99.90;;;;;;5035076;28;20025;-72
2023/11/11 02:32:33;;;;;;;2.40;1.60;;;11.30;99.90;;;;;;5052370;28;20068;-72
2023/11/11 02:35:20;;;;;;;3.20;0.80;;;11.30;99.90;;;;;;5052787;28;20033;-72
2023/11/11 02:37:58;;;;;;;0.90;0.60;;;11.30;99.90;;;;;;5053378;28;20046;-72
2023/11/11 02:40:36;;;;;;;1.15;0.50;;;11.20;99.90;;;;;;5053482;28;20032;-72
2023/11/11 02:43:02;;;;;;;4.63;0.90;;;11.20;99.90;;;;;;5052920;28;20040;-71
2023/11/11 02:45:58;;;;;;;1.77;0.50;;;11.20;99.90;;;;;;5053254;28;20485;-72
2023/11/11 02:48:24;;;;;;;0.45;0.30;;;11.20;99.90;;;;;;5036075;28;20060;-72
2023/11/11 02:50:53;;;;;;;0.70;0.50;;;11.10;99.90;;;;;;5052721;28;20048;-72
2023/11/11 02:53:23;;;;;;;1.58;0.60;;;11.10;99.90;;;;;;5052695;28;20481;-73
2023/11/11 02:55:55;;;;;;;4.22;0.60;;;11.10;99.90;;;;;;5052831;28;20100;-73
2023/11/11 02:58:22;;;;;;;1.80;0.40;;;11.00;99.90;;;;;;5053037;28;20033;-72
2023/11/11 03:00:48;;;;;;;2.28;0.47;;;11.00;99.90;;;;;;5052926;28;20432;-72
2023/11/11 03:03:16;;;;;;;0.60;0.30;;;10.90;99.90;;;;;;5035094;28;20393;-72
2023/11/11 03:05:42;;;;;;;1.10;0.35;;;10.90;99.90;;;;;;5052731;28;20064;-72
2023/11/11 03:08:08;;;;;;;0.10;0.10;;;10.90;99.90;;;;;;5052724;28;20037;-72
2023/11/11 03:10:34;;;;;;;0.35;0.10;;;10.90;99.90;;;;;;5052739;28;20045;-72
2023/11/11 03:13:00;;;;;;;0.98;0.20;;;10.90;99.90;;;;;;5052657;28;20073;-72
2023/11/11 03:15:26;;;;;;;1.33;0.20;;;10.80;99.90;;;;;;5034642;28;20056;-72
2023/11/11 03:17:52;;;;;;;0.82;0.20;;;10.80;99.90;;;;;;5052533;28;20033;-72
2023/11/11 03:20:18;;;;;;;2.88;0.30;;;10.80;99.90;;;;;;5052446;28;20033;-72
2023/11/11 03:22:44;;;;;;;0.30;0.15;;;10.70;99.90;;;;;;5052481;28;20025;-71
2023/11/11 03:25:11;;;;;;;0.80;0.25;;;10.70;99.90;;;;;;5052367;28;20029;-73
2023/11/11 03:27:37;;;;;;;0.22;0.20;;;10.60;99.90;;;;;;5052263;28;20100;-72
2023/11/11 03:30:03;;;;;;;0.10;0.10;;;10.60;99.90;;;;;;5052112;28;20191;-71
2023/11/11 03:32:29;;;;;;;0.20;0.20;;;10.60;99.90;;;;;;5034359;28;20069;-72
2023/11/11 03:34:55;;;;;;;0.20;0.10;;;10.50;99.90;;;;;;5052044;28;20065;-71
2023/11/11 03:37:20;;;;;;;1.45;0.22;;;10.50;99.90;;;;;;5052331;28;20030;-72
2023/11/11 03:39:46;;;;;;;0.43;0.20;;;10.50;99.90;;;;;;5052208;28;20115;-72
2023/11/11 03:42:12;;;;;;;0.15;0.10;;;10.40;99.90;;;;;;5052189;28;20021;-72
2023/11/11 03:44:38;;;;;;;1.10;0.10;;;10.40;99.90;;;;;;5052064;28;20116;-72
2023/11/11 03:47:04;;;;;;;1.27;0.10;;;10.40;99.90;;;;;;5052502;28;20033;-72
2023/11/11 03:49:30;;;;;;;0.15;0.10;;;10.30;99.90;;;;;;5052263;28;20112;-71
2023/11/11 03:51:56;;;;;;;0.52;0.10;;;10.20;99.90;;;;;;5052304;28;20057;-72
2023/11/11 03:54:22;;;;;;;0.47;0.20;;;10.20;99.90;;;;;;5055667;28;20036;-71
2023/11/11 03:56:50;;;;;;;0.52;0.10;;;10.10;99.90;;;;;;5055626;28;20036;-72
2023/11/11 03:59:16;;;;;;;0.00;0.00;;;10.10;99.90;;;;;;5055959;28;20481;-72
2023/11/11 04:01:41;;;;;;;0.40;0.10;;;10.10;99.90;;;;;;5056780;28;20052;-72
2023/11/11 04:04:08;;;;;;;0.08;0.00;;;10.10;99.90;;;;;;5056582;28;20106;-71
2023/11/11 04:06:35;;;;;;;2.65;0.10;;;10.00;99.90;;;;;;5056045;28;20032;-70
2023/11/11 04:09:02;;;;;;;0.47;0.00;;;10.00;99.90;;;;;;5055862;28;20481;-70
2023/11/11 04:11:39;;;;;;;0.20;0.17;;;10.00;99.90;;;;;;5056335;28;20033;-71
2023/11/11 04:14:22;;;;;;;0.40;0.20;;;10.00;99.90;;;;;;5055995;28;20041;-72
2023/11/11 04:20:13;;;;;;;0.13;0.10;;;10.00;99.90;;;;;;5004767;28;20021;-71
2023/11/11 04:22:57;;;;;;;0.73;0.40;;;10.00;99.90;;;;;;5055225;28;20037;-71
2023/11/11 04:25:25;;;;;;;3.40;0.40;;;10.00;99.90;;;;;;5055630;28;20392;-71
2023/11/11 04:27:54;;;;;;;0.40;0.30;;;10.00;99.90;;;;;;5055587;28;20033;-72
2023/11/11 04:30:20;;;;;;;2.13;0.30;;;9.90;99.90;;;;;;5055525;28;20037;-71
2023/11/11 04:32:50;;;;;;;1.25;0.20;;;9.90;99.90;;;;;;5055303;28;20029;-72
2023/11/11 04:35:26;;;;;;;0.45;0.30;;;9.90;99.90;;;;;;5054957;28;20041;-72
2023/11/11 04:37:52;;;;;;;1.65;0.20;;;9.90;99.90;;;;;;5055344;28;20527;-71
2023/11/11 04:40:21;;;;;;;0.90;0.20;;;9.90;99.90;;;;;;5055038;28;20033;-72
2023/11/11 04:42:53;;;;;;;1.42;0.20;;;9.90;99.90;;;;;;5055080;28;20025;-72
2023/11/11 04:45:20;;;;;;;0.20;0.20;;;9.90;99.90;;;;;;5054821;28;20063;-72
2023/11/11 04:47:46;;;;;;;0.28;0.20;;;10.00;99.90;;;;;;5035513;28;20504;-72
2023/11/11 04:50:13;;;;;;;0.38;0.28;;;9.90;99.90;;;;;;5053375;28;20037;-72
2023/11/11 04:52:39;;;;;;;1.08;0.22;;;9.90;99.90;;;;;;5054753;28;20025;-72
2023/11/11 04:55:09;;;;;;;0.50;0.10;;;10.00;99.90;;;;;;5054841;28;20033;-72
2023/11/11 04:57:44;;;;;;;0.20;0.20;;;9.90;99.90;;;;;;5054976;28;20512;-72
2023/11/11 05:00:10;;;;;;;0.70;0.17;;;9.90;99.90;;;;;;5054909;28;20504;-71
2023/11/11 05:02:39;;;;;;;0.50;0.30;;;10.00;99.90;;;;;;5054869;28;20125;-72
2023/11/11 05:05:05;;;;;;;1.02;0.30;;;9.90;99.90;;;;;;5054166;28;20025;-72
2023/11/11 05:07:32;;;;;;;0.40;0.20;;;9.90;99.90;;;;;;5054671;28;20045;-72
2023/11/11 05:09:59;;;;;;;0.43;0.20;;;9.90;99.90;;;;;;5054716;28;20041;-71
2023/11/11 05:12:25;;;;;;;0.20;0.20;;;9.90;99.90;;;;;;5036583;28;20424;-71
2023/11/11 05:14:54;;;;;;;1.90;0.30;;;9.90;99.90;;;;;;5054471;28;20029;-72
2023/11/11 05:17:25;;;;;;;3.92;1.00;;;9.90;99.90;;;;;;5054461;28;20044;-72
2023/11/11 05:19:53;;;;;;;1.30;0.90;;;9.90;99.90;;;;;;5036836;28;20037;-72
2023/11/11 05:22:19;;;;;;;2.30;1.00;;;9.80;99.90;;;;;;5054476;28;20025;-72
2023/11/11 05:24:44;;;;;;;2.08;1.30;;;9.80;99.90;;;;;;5054413;28;20106;-72
2023/11/11 05:27:10;;;;;;;1.38;0.80;;;9.80;99.90;;;;;;5053937;28;20079;-72
2023/11/11 05:29:37;;;;;;;5.10;0.47;;;9.80;99.90;;;;;;5053985;28;20048;-72
2023/11/11 05:32:03;;;;;;;0.68;0.30;;;9.80;99.90;;;;;;5054222;28;20117;-72
2023/11/11 05:34:29;;;;;;;0.85;0.30;;;9.70;99.90;;;;;;5054148;28;20028;-73
2023/11/11 05:36:55;;;;;;;1.67;0.40;;;9.60;99.90;;;;;;5054263;28;20021;-71
2023/11/11 05:39:21;;;;;;;1.65;0.30;;;9.60;99.90;;;;;;5036080;28;20362;-71
2023/11/11 05:41:48;;;;;;;0.65;0.30;;;9.60;99.90;;;;;;5053958;28;20047;-72
2023/11/11 05:44:14;;;;;;;2.10;0.40;;;9.60;99.90;;;;;;5054066;28;20032;-71
2023/11/11 05:46:40;;;;;;;2.92;0.40;;;9.60;99.90;;;;;;5054690;28;20033;-70
2023/11/11 05:49:06;;;;;;;4.45;0.40;;;9.50;99.90;;;;;;5054545;28;20029;-72
2023/11/11 05:51:32;;;;;;;0.30;0.20;;;9.50;99.90;;;;;;5054463;28;20107;-71
2023/11/11 05:53:58;;;;;;;0.93;0.20;;;9.40;99.90;;;;;;5054615;28;20037;-71
2023/11/11 05:56:30;;;;;;;0.20;0.10;;;9.30;99.90;;;;;;5054377;28;20087;-71
2023/11/11 05:58:59;;;;;;;0.55;0.30;;;9.30;99.90;;;;;;5047030;28;20914;-71
2023/11/11 06:01:27;;;;;;;1.00;0.23;;;9.20;99.90;;;;;;5053991;28;20033;-71
2023/11/11 06:03:59;;;;;;;0.37;0.30;;;9.20;99.90;;;;;;5054244;28;20065;-71
2023/11/11 06:06:41;;;;;;;4.72;0.35;;;9.20;99.90;;;;;;5054239;28;20025;-71
2023/11/11 06:09:39;;;;;;;0.87;0.20;;;9.10;99.90;;;;;;5054128;28;20063;-71
2023/11/11 06:12:05;;;;;;;2.10;0.40;;;9.10;99.90;;;;;;5048536;28;20053;-71
2023/11/11 06:14:31;;;;;;;2.00;0.70;;;9.00;99.90;;;;;;5053562;28;20033;-71
2023/11/11 06:16:57;;;;;;;1.53;0.80;;;9.00;99.90;;;;;;5052789;28;20048;-72
2023/11/11 06:19:30;;;;;;;2.10;1.00;;;9.00;99.90;;;;;;5053444;28;20037;-72
2023/11/11 06:21:56;;;;;;;0.32;0.30;;;9.10;99.90;;;;;;5053320;28;20063;-71
2023/11/11 06:24:32;;;;;;;3.37;0.70;;;9.10;99.90;;;;;;5053422;28;20378;-70
2023/11/11 06:26:57;;;;;;;6.27;1.33;;;9.10;99.90;;;;;;5053354;28;20392;-71
2023/11/11 06:29:27;;;;;;;1.10;0.70;;;9.10;99.90;;;;;;5051772;28;20200;-71
2023/11/11 06:31:53;;;;;;;0.97;0.67;;;9.10;99.90;;;;;;5050666;28;20041;-72
2023/11/11 06:34:19;;;;;;;1.77;0.90;;;9.10;99.90;;;;;;5052505;28;20112;-72
2023/11/11 06:36:45;;;;;;;3.20;1.10;;;9.00;99.90;;;;;;5053092;28;20036;-71
2023/11/11 06:39:15;;;;;;;1.07;0.80;;;9.10;99.90;;;;;;5053104;28;20029;-71
2023/11/11 06:41:52;;;;;;;1.80;0.90;;;9.10;99.90;;;;;;5053001;28;20432;-72
2023/11/11 06:44:20;;;;;;;1.80;0.90;;;9.10;99.90;;;;;;5053015;28;20518;-71
2023/11/11 06:46:46;;;;;;;3.73;1.03;;;9.10;99.90;;;;;;5052929;28;20037;-70
2023/11/11 06:49:11;;;;;;;1.63;0.90;;;9.10;99.90;;;;;;5052633;28;20107;-71
2023/11/11 06:51:37;;;;;;;3.97;1.00;;;9.10;99.90;;;;;;5052719;28;20053;-71
2023/11/11 06:54:04;;;;;;;2.30;1.07;;;9.10;99.90;;;;;;5050490;28;20040;-71
2023/11/11 06:56:30;;;;;;;3.50;0.97;;;9.10;99.90;;;;;;5050020;28;20040;-71
2023/11/11 06:58:56;;;;;;;2.53;0.90;;;9.10;99.90;;;;;;5050803;28;20037;-71
2023/11/11 07:01:23;;;;;;;1.73;1.00;;;9.10;99.90;;;;;;5052281;28;20045;-72
2023/11/11 07:03:50;;;;;;;1.80;1.10;;;9.10;99.90;;;;;;5052228;28;20029;-72
2023/11/11 07:06:22;;;;;;;3.57;1.27;;;9.10;99.90;;;;;;5052443;28;20389;-71
2023/11/11 07:08:52;;;;;;;3.08;1.75;;;9.10;99.90;;;;;;5052107;28;20072;-72
2023/11/11 07:11:22;;;;;;;3.87;1.53;;;9.10;99.90;;;;;;5053776;28;20382;-70
2023/11/11 07:13:47;;;;;;;1.20;0.67;;;9.10;99.90;;;;;;5055520;28;20056;-71
2023/11/11 07:16:17;;;;;;;2.97;0.90;;;9.10;99.90;;;;;;5052610;28;20029;-71
2023/11/11 07:18:48;;;;;;;3.47;2.40;;;9.00;99.90;;;;;;5052798;28;20029;-72
2023/11/11 07:21:22;;;;;;;2.83;1.10;;;9.00;99.90;;;;;;5052445;28;20056;-71
2023/11/11 07:23:54;;;;;;;2.13;1.20;;;9.00;99.90;;;;;;5052372;28;20497;-71
2023/11/11 07:26:20;;;;;;;1.30;1.15;;;9.00;99.90;;;;;;5052612;28;20025;-71
2023/11/11 07:28:47;;;;;;;1.57;1.47;;;9.00;99.90;;;;;;5055578;28;20041;-70
2023/11/11 07:31:17;;;;;;;2.07;1.60;;;9.00;99.90;;;;;;5056226;28;20049;-72
2023/11/11 07:33:44;;;;;;;2.30;0.93;;;9.00;99.90;;;;;;5056757;28;20167;-70
2023/11/11 07:36:10;;;;;;;1.40;0.60;;;9.10;99.90;;;;;;5056653;28;20091;-71
2023/11/11 07:38:39;;;;;;;1.90;0.53;;;9.10;99.90;;;;;;5056079;28;20397;-71
2023/11/11 07:41:12;;;;;;;4.43;0.93;;;9.20;99.90;;;;;;5056466;28;20061;-69
2023/11/11 07:43:48;;;;;;;1.38;0.82;;;9.30;99.90;;;;;;5056594;28;20033;-68
2023/11/11 07:46:26;;;;;;;2.33;0.70;;;9.30;99.90;;;;;;5056522;28;20041;-69
2023/11/11 07:49:13;;;;;;;3.60;0.63;;;9.40;99.90;;;;;;5056444;28;20028;-70
2023/11/11 07:51:48;;;;;;;1.03;0.60;;;9.50;99.90;;;;;;5045695;28;20045;-70
2023/11/11 07:54:41;;;;;;;;;;;;;;;;;;;;;
2023/11/11 07:57:22;;;;;;;1.65;0.93;;;9.60;99.90;;;;;;5056478;28;20047;-70
2023/11/11 08:02:37;;;;;;;5.27;1.17;;;9.70;99.90;;;;;;5040519;28;20120;-71
2023/11/11 08:05:13;;;;;;;4.30;1.30;;;9.80;99.90;;;;;;5055399;28;20029;-70
2023/11/11 08:07:50;;;;;;;1.93;1.20;;;9.90;99.90;;;;;;5055130;28;20043;-71
2023/11/11 08:10:28;;;;;;;5.23;1.30;;;9.90;99.90;;;;;;5055527;28;20041;-70
2023/11/11 08:12:58;;;;;;;2.60;1.20;;;9.90;99.90;;;;;;5037446;28;20053;-70
2023/11/11 08:15:24;;;;;;;2.03;1.00;;;10.00;99.90;;;;;;5037227;28;20073;-71
2023/11/11 08:17:54;;;;;;;3.33;0.88;;;10.00;99.90;;;;;;5055221;28;20037;-71
2023/11/11 08:20:21;;;;;;;2.40;1.05;;;10.10;99.90;;;;;;5035525;28;20057;-71
2023/11/11 08:22:49;;;;;;;1.30;0.80;;;10.10;99.90;;;;;;5034972;28;20046;-72
2023/11/11 08:25:22;;;;;;;1.48;0.75;;;10.10;99.90;;;;;;5035470;28;20064;-71
2023/11/11 08:28:05;;;;;;;0.93;0.50;;;10.20;99.90;;;;;;5035269;28;20359;-71
2023/11/11 08:30:31;;;;;;;1.10;0.65;;;10.20;99.90;;;;;;5017156;28;20052;-71
2023/11/11 08:32:57;;;;;;;0.93;0.60;;;10.30;99.90;;;;;;5032322;28;20036;-71
2023/11/11 08:35:23;;;;;;;2.45;0.98;;;10.30;99.90;;;;;;5033175;28;20041;-71
2023/11/11 08:37:49;;;;;;;2.45;0.98;;;10.40;99.90;;;;;;5035129;28;20022;-71
2023/11/11 08:40:16;;;;;;;1.85;1.15;;;10.40;99.90;;;;;;5034426;28;20048;-71
2023/11/11 08:42:43;;;;;;;0.80;0.68;;;10.40;99.90;;;;;;5035100;28;20029;-70
2023/11/11 08:45:09;;;;;;;0.65;0.40;;;10.40;99.90;;;;;;5034883;28;20038;-70
2023/11/11 08:47:36;;;;;;;0.73;0.40;;;10.40;99.90;;;;;;5035322;28;20026;-71
2023/11/11 08:50:06;;;;;;;1.20;0.60;;;10.40;99.90;;;;;;5034794;28;20073;-71
2023/11/11 08:52:36;;;;;;;0.98;0.60;;;10.50;99.90;;;;;;5017166;28;20073;-71
2023/11/11 08:55:03;;;;;;;1.35;0.63;;;10.50;99.90;;;;;;5034805;28;20037;-71
2023/11/11 08:57:29;;;;;;;1.10;0.52;;;10.60;99.90;;;;;;5034895;28;20486;-71
2023/11/11 08:59:55;;;;;;;3.30;0.68;;;10.70;99.90;;;;;;5034906;28;20041;-71
2023/11/11 09:02:21;;;;;;;2.00;0.50;;;10.70;99.90;;;;;;5034867;28;20041;-71
2023/11/11 09:04:46;;;;;;;1.60;0.68;;;10.70;99.90;;;;;;5034789;28;20037;-71
2023/11/11 09:07:12;;;;;;;0.43;0.32;;;10.80;99.90;;;;;;5034805;28;20030;-71
2023/11/11 09:09:38;;;;;;;0.60;0.28;;;10.80;99.90;;;;;;5033126;28;20049;-70
2023/11/11 09:12:04;;;;;;;4.00;0.50;;;10.90;99.90;;;;;;5032673;28;20037;-71
2023/11/11 09:14:33;;;;;;;1.20;0.50;;;10.90;99.90;;;;;;5049810;28;20044;-70
2023/11/11 09:17:03;;;;;;;1.20;0.60;;;10.90;99.90;;;;;;5053441;28;20044;-71
2023/11/11 09:19:31;;;;;;;2.10;0.60;;;10.90;99.90;;;;;;5053263;28;20033;-70
2023/11/11 09:21:57;;;;;;;0.90;0.60;;;10.90;99.90;;;;;;5053224;28;20029;-70
2023/11/11 09:24:23;;;;;;;1.10;0.63;;;10.90;99.90;;;;;;5054131;28;20048;-71
2023/11/11 09:26:52;;;;;;;1.13;0.60;;;11.00;99.90;;;;;;5055193;28;20041;-70
2023/11/11 09:29:19;;;;;;;4.93;0.70;;;11.00;99.90;;;;;;5054893;28;20064;-70
2023/11/11 09:31:48;;;;;;;1.17;0.50;;;11.00;99.90;;;;;;5054656;28;20082;-71
2023/11/11 09:34:15;;;;;;;1.10;0.50;;;11.10;99.90;;;;;;5054658;28;20116;-71
2023/11/11 09:36:41;;;;;;;1.00;0.60;;;11.10;99.90;;;;;;5054657;28;20040;-71
2023/11/11 09:39:13;;;;;;;1.27;0.57;;;11.20;99.90;;;;;;5054493;28;20187;-72
2023/11/11 09:41:41;;;;;;;1.38;0.50;;;11.20;99.90;;;;;;5036179;28;20543;-71
2023/11/11 09:44:08;;;;;;;1.58;0.70;;;11.20;99.90;;;;;;5044915;28;20148;-71
2023/11/11 09:46:42;;;;;;;3.60;0.90;;;11.20;99.90;;;;;;5043764;28;20029;-72
2023/11/11 09:49:09;;;;;;;2.78;0.90;;;11.20;99.90;;;;;;5043722;28;20041;-72
2023/11/11 09:51:39;;;;;;;1.17;0.70;;;11.20;99.90;;;;;;5033719;28;20037;-72
2023/11/11 09:54:09;;;;;;;1.33;0.63;;;11.30;99.90;;;;;;5042587;28;20029;-72
2023/11/11 09:56:36;;;;;;;0.95;0.57;;;11.30;99.90;;;;;;5026676;28;20037;-71
2023/11/11 09:59:05;;;;;;;1.77;0.63;;;11.40;99.90;;;;;;5033725;28;20025;-72
2023/11/11 10:01:32;;;;;;;1.17;0.75;;;11.40;99.90;;;;;;5034041;28;20037;-72
2023/11/11 10:03:58;;;;;;;2.05;0.70;;;11.40;99.90;;;;;;5033718;28;20559;-72
2023/11/11 10:06:24;;;;;;;2.10;0.82;;;11.50;99.90;;;;;;5033260;28;20431;-71
2023/11/11 10:08:52;;;;;;;1.60;0.90;;;11.50;99.90;;;;;;5013394;28;20061;-72
2023/11/11 10:11:18;;;;;;;4.03;0.80;;;11.60;99.90;;;;;;5038911;23;20057;-71
2023/11/11 10:13:45;;;;;;;4.50;0.85;;;11.60;99.90;;;;;;5029852;28;20037;-71
2023/11/11 10:16:24;;;;;;;2.05;1.10;;;11.60;99.90;;;;;;5033534;28;20037;-71
2023/11/11 10:18:57;;;;;;;3.25;1.10;;;11.70;99.90;;;;;;5033399;28;20374;-71
2023/11/11 10:21:23;;;;;;;2.20;0.65;;;11.80;99.90;;;;;;5033701;28;20104;-72
2023/11/11 10:23:50;;;;;;;1.88;0.80;;;11.80;99.90;;;;;;5033187;28;20030;-71
2023/11/11 10:26:17;;;;;;;1.00;0.60;;;11.90;99.90;;;;;;5033789;28;20041;-72
2023/11/11 10:28:52;;;;;;;4.28;2.20;;;12.00;99.90;;;;;;5033642;28;20033;-72
2023/11/11 10:31:23;;;;;;;7.82;1.83;;;12.00;99.90;;;;;;5015521;28;20041;-72
2023/11/11 10:33:50;;;;;;;1.13;0.80;;;12.10;99.90;;;;;;5033167;28;20030;-72
2023/11/11 10:36:17;;;;;;;3.33;0.85;;;12.20;99.90;;;;;;5033151;28;20080;-72
2023/11/11 10:38:46;;;;;;;1.08;0.60;;;12.20;99.90;;;;;;5033465;28;20377;-72
2023/11/11 10:41:14;;;;;;;1.98;0.88;;;12.30;99.90;;;;;;5033506;28;20034;-72
2023/11/11 10:43:40;;;;;;;2.53;0.90;;;12.30;99.90;;;;;;5032794;28;20386;-71
2023/11/11 10:46:07;;;;;;;1.48;0.85;;;12.30;99.90;;;;;;5032529;28;20042;-72
2023/11/11 10:48:34;;;;;;;1.15;0.75;;;12.40;99.90;;;;;;5032845;28;20033;-71
2023/11/11 10:51:03;;;;;;;1.10;0.80;;;12.40;99.90;;;;;;5032816;28;20465;-71
2023/11/11 10:53:31;;;;;;;3.33;0.70;;;12.50;99.90;;;;;;5032854;28;20425;-72
2023/11/11 10:55:58;;;;;;;1.10;0.63;;;12.50;99.70;;;;;;5033064;28;20436;-71
2023/11/11 10:58:25;;;;;;;1.65;0.75;;;12.60;98.70;;;;;;5032905;28;20037;-71
2023/11/11 11:00:51;;;;;;;0.73;0.50;;;12.60;98.30;;;;;;5032751;28;20493;-71
2023/11/11 11:03:19;;;;;;;2.60;0.70;;;12.60;97.80;;;;;;5032393;28;20030;-71
2023/11/11 11:05:55;;;;;;;1.10;0.63;;;12.60;98.40;;;;;;5032820;28;20733;-72
2023/11/11 11:08:49;;;;;;;1.65;0.80;;;12.70;98.60;;;;;;5032331;28;20037;-72
2023/11/11 11:11:24;;;;;;;1.38;0.63;;;12.80;98.20;;;;;;4984924;28;20511;-71
2023/11/11 11:13:53;;;;;;;1.80;1.00;;;12.80;97.90;;;;;;5014711;28;20397;-71
2023/11/11 11:16:28;;;;;;;0.98;0.55;;;12.80;98.10;;;;;;5032756;28;20076;-71
2023/11/11 11:18:57;;;;;;;1.27;0.75;;;12.90;97.90;;;;;;5032899;28;20069;-71
2023/11/11 11:21:27;;;;;;;0.95;0.47;;;12.90;96.80;;;;;;5032779;28;20037;-71
2023/11/11 11:23:53;;;;;;;1.20;0.60;;;12.90;96.10;;;;;;5032686;28;20064;-71
2023/11/11 11:26:29;;;;;;;0.98;0.70;;;12.90;96.20;;;;;;5032322;28;20088;-71
2023/11/11 11:29:13;;;;;;;1.15;0.65;;;13.00;96.40;;;;;;5032398;28;20130;-71
2023/11/11 11:32:04;;;;;;;1.33;0.60;;;13.00;96.60;;;;;;5033319;28;20077;-73
2023/11/11 11:34:30;;;;;;;0.45;0.43;;;13.10;95.00;;;;;;5018226;28;20046;-71
2023/11/11 11:36:56;;;;;;;5.97;0.70;;;13.10;95.60;;;;;;5030014;28;20099;-71
2023/11/11 11:39:35;;;;;;;2.60;0.60;;;13.10;95.80;;;;;;5030647;28;20041;-70
2023/11/11 11:42:24;;;;;;;0.77;0.60;;;13.20;94.00;;;;;;5014949;28;20034;-70
2023/11/11 11:44:58;;;;;;;1.50;0.73;;;13.20;94.50;;;;;;5033063;28;20389;-70
2023/11/11 11:47:45;;;;;;;1.00;0.60;;;13.20;94.60;;;;;;5015041;28;20052;-71
2023/11/11 11:50:19;;;;;;;1.98;0.63;;;13.20;94.30;;;;;;5032868;28;20549;-71
2023/11/11 11:52:46;;;;;;;1.23;0.50;;;13.30;93.90;;;;;;5031661;28;20416;-71
2023/11/11 11:55:12;;;;;;;0.85;0.70;;;13.30;93.40;;;;;;5014952;28;20123;-71
2023/11/11 11:58:14;;;;;;;0.90;0.68;;;13.30;94.20;;;;;;5032550;28;20034;-71
2023/11/11 12:00:40;;;;;;;1.23;0.50;;;13.30;93.60;;;;;;5032623;28;20036;-72
2023/11/11 12:03:06;;;;;;;2.63;0.60;;;13.40;93.50;;;;;;5032215;28;20071;-72
2023/11/11 12:05:32;;;;;;;1.17;0.57;;;13.40;93.10;;;;;;5029589;28;20508;-73
2023/11/11 12:07:58;;;;;;;0.80;0.50;;;13.40;93.30;;;;;;5029056;28;20033;-72
2023/11/11 12:10:25;;;;;;;1.17;0.70;;;13.40;93.40;;;;;;5029765;28;20047;-71
2023/11/11 12:12:52;;;;;;;1.33;0.73;;;13.50;93.40;;;;;;5030606;28;20541;-71
2023/11/11 12:15:18;;;;;;;1.67;0.90;;;13.50;93.90;;;;;;5031704;28;20057;-72
2023/11/11 12:17:46;;;;;;;1.33;0.80;;;13.50;92.50;;;;;;5033221;28;20126;-71
2023/11/11 12:20:14;;;;;;;1.30;0.82;;;13.50;92.00;;;;;;5035794;28;20033;-72
2023/11/11 12:22:46;;;;;;;1.23;0.88;;;13.50;92.50;;;;;;5035617;28;20032;-72
2023/11/11 12:25:12;;;;;;;1.63;1.13;;;13.50;92.10;;;;;;5036124;28;20075;-71
2023/11/11 12:27:39;;;;;;;1.20;0.85;;;13.50;92.80;;;;;;5035797;28;20041;-71
2023/11/11 12:30:31;;;;;;;2.17;0.90;;;13.60;93.20;;;;;;5018145;28;20432;-72
2023/11/11 12:33:05;;;;;;;1.13;0.85;;;13.60;93.40;;;;;;5030845;28;20037;-71
2023/11/11 12:35:33;;;;;;;1.90;0.93;;;13.60;92.90;;;;;;5034456;28;20041;-71
2023/11/11 12:38:19;;;;;;;1.63;0.80;;;13.70;93.20;;;;;;5033415;28;20056;-71
2023/11/11 12:40:45;;;;;;;3.10;1.00;;;13.70;93.10;;;;;;5030872;28;20428;-71
2023/11/11 12:43:12;;;;;;;2.10;1.08;;;13.70;93.60;;;;;;5013011;28;20136;-72
2023/11/11 12:45:38;;;;;;;1.75;1.00;;;13.70;94.10;;;;;;5032457;28;20047;-72
2023/11/11 12:48:04;;;;;;;2.05;0.93;;;13.80;93.60;;;;;;5033195;28;20480;-72
2023/11/11 12:50:33;;;;;;;2.55;1.42;;;13.80;92.50;;;;;;5032896;28;20037;-72
2023/11/11 12:53:04;;;;;;;2.10;1.23;;;13.80;92.40;;;;;;5032780;28;20680;-72
2023/11/11 12:55:30;;;;;;;3.60;1.93;;;13.80;92.00;;;;;;5034433;28;20358;-72
2023/11/11 12:58:26;;;;;;;2.70;1.40;;;13.70;92.00;;;;;;5034825;28;20549;-72
2023/11/11 13:01:01;;;;;;;4.63;1.60;;;13.70;92.40;;;;;;5024517;28;20129;-72
2023/11/11 13:03:28;;;;;;;1.92;1.15;;;13.70;92.50;;;;;;5034748;28;20041;-72
2023/11/11 13:06:06;;;;;;;3.17;1.35;;;13.70;91.90;;;;;;5034635;28;20509;-72
2023/11/11 13:08:34;;;;;;;2.47;1.40;;;13.60;91.00;;;;;;5034555;28;20079;-71